sensor_id;sensor_type;location;lat;lon;timestamp;P1;durP1;ratioP1;P2;durP2;ratioP2
22017;SDS011;11173;51.050;7.108;2024-02-16T00:07:54;0.90;;;0.50;;
22017;SDS011;11173;51.050;7.108;2024-02-16T00:17:54;1.73;;;0.82;;
22017;SDS011;11173;51.050;7.108;2024-02-16T00:27:54;1.95;;;0.88;;
22017;SDS011;11173;51.050;7.108;2024-02-16T00:37:54;1.08;;;0.90;;
22017;SDS011;11173;51.050;7.108;2024-02-16T00:47:55;1.60;;;0.75;;
22017;SDS011;11173;51.050;7.108;2024-02-16T00:57:55;1.00;;;0.90;;
22017;SDS011;11173;51.050;7.108;2024-02-16T01:07:56;1.15;;;0.70;;
22017;SDS011;11173;51.050;7.108;2024-02-16T01:17:56;0.70;;;0.70;;
22017;SDS011;11173;51.050;7.108;2024-02-16T01:27:56;2.88;;;0.73;;
22017;SDS011;11173;51.050;7.108;2024-02-16T01:37:56;3.92;;;0.82;;
22017;SDS011;11173;51.050;7.108;2024-02-16T01:47:57;0.90;;;0.70;;
22017;SDS011;11173;51.050;7.108;2024-02-16T01:57:57;0.60;;;0.60;;
22017;SDS011;11173;51.050;7.108;2024-02-16T02:07:58;1.85;;;0.80;;
22017;SDS011;11173;51.050;7.108;2024-02-16T02:17:58;0.55;;;0.55;;
22017;SDS011;11173;51.050;7.108;2024-02-16T02:27:59;0.52;;;0.52;;
22017;SDS011;11173;51.050;7.108;2024-02-16T02:37:59;0.77;;;0.40;;
22017;SDS011;11173;51.050;7.108;2024-02-16T02:48:00;0.60;;;0.60;;
22017;SDS011;11173;51.050;7.108;2024-02-16T02:58:00;0.32;;;0.30;;
22017;SDS011;11173;51.050;7.108;2024-02-16T03:08:00;0.45;;;0.45;;
22017;SDS011;11173;51.050;7.108;2024-02-16T03:18:02;0.20;;;0.20;;
22017;SDS011;11173;51.050;7.108;2024-02-16T03:28:02;0.40;;;0.40;;
22017;SDS011;11173;51.050;7.108;2024-02-16T03:38:03;0.40;;;0.40;;
22017;SDS011;11173;51.050;7.108;2024-02-16T03:48:03;0.40;;;0.40;;
22017;SDS011;11173;51.050;7.108;2024-02-16T03:58:04;0.43;;;0.30;;
22017;SDS011;11173;51.050;7.108;2024-02-16T04:08:04;0.50;;;0.40;;
22017;SDS011;11173;51.050;7.108;2024-02-16T04:18:06;0.32;;;0.32;;
22017;SDS011;11173;51.050;7.108;2024-02-16T04:28:06;0.90;;;0.65;;
22017;SDS011;11173;51.050;7.108;2024-02-16T04:38:07;0.73;;;0.60;;
22017;SDS011;11173;51.050;7.108;2024-02-16T04:48:07;0.50;;;0.45;;
22017;SDS011;11173;51.050;7.108;2024-02-16T04:58:08;0.30;;;0.30;;
22017;SDS011;11173;51.050;7.108;2024-02-16T05:08:09;0.75;;;0.60;;
22017;SDS011;11173;51.050;7.108;2024-02-16T05:18:09;0.40;;;0.40;;
22017;SDS011;11173;51.050;7.108;2024-02-16T05:28:12;0.32;;;0.32;;
22017;SDS011;11173;51.050;7.108;2024-02-16T05:38:13;0.45;;;0.45;;
22017;SDS011;11173;51.050;7.108;2024-02-16T05:48:32;0.45;;;0.45;;
22017;SDS011;11173;51.050;7.108;2024-02-16T05:58:35;0.65;;;0.52;;
22017;SDS011;11173;51.050;7.108;2024-02-16T06:08:35;0.88;;;0.50;;
22017;SDS011;11173;51.050;7.108;2024-02-16T06:18:36;0.60;;;0.60;;
22017;SDS011;11173;51.050;7.108;2024-02-16T06:28:36;0.70;;;0.50;;
22017;SDS011;11173;51.050;7.108;2024-02-16T06:38:36;1.05;;;0.50;;
22017;SDS011;11173;51.050;7.108;2024-02-16T06:48:37;0.50;;;0.50;;
22017;SDS011;11173;51.050;7.108;2024-02-16T06:58:37;0.40;;;0.40;;
22017;SDS011;11173;51.050;7.108;2024-02-16T07:08:38;0.40;;;0.40;;
22017;SDS011;11173;51.050;7.108;2024-02-16T07:18:39;0.52;;;0.50;;
22017;SDS011;11173;51.050;7.108;2024-02-16T07:28:39;0.35;;;0.35;;
22017;SDS011;11173;51.050;7.108;2024-02-16T07:38:39;0.30;;;0.30;;
22017;SDS011;11173;51.050;7.108;2024-02-16T07:48:39;0.90;;;0.70;;
22017;SDS011;11173;51.050;7.108;2024-02-16T07:58:43;0.50;;;0.50;;
22017;SDS011;11173;51.050;7.108;2024-02-16T08:08:43;0.55;;;0.55;;
22017;SDS011;11173;51.050;7.108;2024-02-16T08:18:44;1.08;;;0.60;;
22017;SDS011;11173;51.050;7.108;2024-02-16T08:28:45;0.47;;;0.47;;
22017;SDS011;11173;51.050;7.108;2024-02-16T08:38:45;0.70;;;0.60;;
22017;SDS011;11173;51.050;7.108;2024-02-16T08:48:46;0.35;;;0.35;;
22017;SDS011;11173;51.050;7.108;2024-02-16T08:58:47;0.93;;;0.50;;
22017;SDS011;11173;51.050;7.108;2024-02-16T09:08:47;0.85;;;0.45;;
22017;SDS011;11173;51.050;7.108;2024-02-16T09:18:47;0.40;;;0.30;;
22017;SDS011;11173;51.050;7.108;2024-02-16T09:28:48;0.60;;;0.60;;
22017;SDS011;11173;51.050;7.108;2024-02-16T09:38:48;0.40;;;0.40;;
22017;SDS011;11173;51.050;7.108;2024-02-16T09:48:48;0.73;;;0.52;;
22017;SDS011;11173;51.050;7.108;2024-02-16T09:58:53;0.30;;;0.30;;
22017;SDS011;11173;51.050;7.108;2024-02-16T10:08:55;0.30;;;0.30;;
22017;SDS011;11173;51.050;7.108;2024-02-16T10:19:03;0.30;;;0.30;;
22017;SDS011;11173;51.050;7.108;2024-02-16T10:29:10;0.40;;;0.40;;
22017;SDS011;11173;51.050;7.108;2024-02-16T10:39:14;0.40;;;0.40;;
22017;SDS011;11173;51.050;7.108;2024-02-16T10:49:16;0.90;;;0.40;;
22017;SDS011;11173;51.050;7.108;2024-02-16T10:59:17;0.52;;;0.50;;
22017;SDS011;11173;51.050;7.108;2024-02-16T11:09:27;0.60;;;0.60;;
22017;SDS011;11173;51.050;7.108;2024-02-16T11:19:29;0.32;;;0.32;;
22017;SDS011;11173;51.050;7.108;2024-02-16T11:29:33;0.40;;;0.40;;
22017;SDS011;11173;51.050;7.108;2024-02-16T11:39:34;0.40;;;0.40;;
22017;SDS011;11173;51.050;7.108;2024-02-16T11:49:37;0.35;;;0.35;;
22017;SDS011;11173;51.050;7.108;2024-02-16T11:59:37;0.55;;;0.50;;
22017;SDS011;11173;51.050;7.108;2024-02-16T12:09:39;0.30;;;0.28;;
22017;SDS011;11173;51.050;7.108;2024-02-16T12:19:43;0.68;;;0.35;;
22017;SDS011;11173;51.050;7.108;2024-02-16T12:29:43;0.57;;;0.40;;
22017;SDS011;11173;51.050;7.108;2024-02-16T12:39:44;0.40;;;0.32;;
22017;SDS011;11173;51.050;7.108;2024-02-16T12:49:45;0.20;;;0.20;;
22017;SDS011;11173;51.050;7.108;2024-02-16T12:59:46;0.38;;;0.38;;
22017;SDS011;11173;51.050;7.108;2024-02-16T13:09:46;0.40;;;0.40;;
22017;SDS011;11173;51.050;7.108;2024-02-16T13:19:46;0.30;;;0.30;;
22017;SDS011;11173;51.050;7.108;2024-02-16T13:29:46;0.20;;;0.20;;
22017;SDS011;11173;51.050;7.108;2024-02-16T13:39:47;0.50;;;0.30;;
22017;SDS011;11173;51.050;7.108;2024-02-16T13:49:47;0.30;;;0.30;;
22017;SDS011;11173;51.050;7.108;2024-02-16T13:59:48;0.60;;;0.40;;
22017;SDS011;11173;51.050;7.108;2024-02-16T14:09:49;1.25;;;0.38;;
22017;SDS011;11173;51.050;7.108;2024-02-16T14:19:49;0.82;;;0.60;;
22017;SDS011;11173;51.050;7.108;2024-02-16T14:29:49;0.60;;;0.60;;
22017;SDS011;11173;51.050;7.108;2024-02-16T14:39:50;0.60;;;0.60;;
22017;SDS011;11173;51.050;7.108;2024-02-16T14:49:53;0.60;;;0.60;;
22017;SDS011;11173;51.050;7.108;2024-02-16T14:59:53;2.70;;;1.60;;
22017;SDS011;11173;51.050;7.108;2024-02-16T15:09:55;4.03;;;3.72;;
22017;SDS011;11173;51.050;7.108;2024-02-16T15:19:55;3.53;;;3.28;;
22017;SDS011;11173;51.050;7.108;2024-02-16T15:29:56;3.08;;;2.67;;
22017;SDS011;11173;51.050;7.108;2024-02-16T15:39:56;3.30;;;3.00;;
22017;SDS011;11173;51.050;7.108;2024-02-16T15:49:56;4.57;;;4.15;;
22017;SDS011;11173;51.050;7.108;2024-02-16T15:59:56;3.90;;;3.55;;
22017;SDS011;11173;51.050;7.108;2024-02-16T16:09:58;3.83;;;3.53;;
22017;SDS011;11173;51.050;7.108;2024-02-16T16:19:58;2.63;;;2.42;;
22017;SDS011;11173;51.050;7.108;2024-02-16T16:30:00;1.70;;;1.38;;
22017;SDS011;11173;51.050;7.108;2024-02-16T16:40:00;1.88;;;1.70;;
22017;SDS011;11173;51.050;7.108;2024-02-16T16:50:00;3.15;;;2.92;;
22017;SDS011;11173;51.050;7.108;2024-02-16T17:00:01;3.63;;;3.40;;
22017;SDS011;11173;51.050;7.108;2024-02-16T17:10:01;3.20;;;2.90;;
22017;SDS011;11173;51.050;7.108;2024-02-16T17:20:02;3.50;;;3.20;;
22017;SDS011;11173;51.050;7.108;2024-02-16T17:30:02;3.20;;;2.90;;
22017;SDS011;11173;51.050;7.108;2024-02-16T17:40:03;5.15;;;3.92;;
22017;SDS011;11173;51.050;7.108;2024-02-16T17:50:04;4.53;;;3.70;;
22017;SDS011;11173;51.050;7.108;2024-02-16T18:00:04;3.65;;;3.35;;
22017;SDS011;11173;51.050;7.108;2024-02-16T18:10:05;3.78;;;3.47;;
22017;SDS011;11173;51.050;7.108;2024-02-16T18:20:09;4.45;;;4.15;;
22017;SDS011;11173;51.050;7.108;2024-02-16T18:30:09;5.13;;;4.72;;
22017;SDS011;11173;51.050;7.108;2024-02-16T18:40:10;6.13;;;5.72;;
22017;SDS011;11173;51.050;7.108;2024-02-16T18:50:11;8.63;;;7.93;;
22017;SDS011;11173;51.050;7.108;2024-02-16T19:00:11;9.07;;;8.20;;
22017;SDS011;11173;51.050;7.108;2024-02-16T19:10:12;10.87;;;9.87;;
22017;SDS011;11173;51.050;7.108;2024-02-16T19:20:12;9.45;;;8.65;;
22017;SDS011;11173;51.050;7.108;2024-02-16T19:30:12;8.63;;;7.82;;
22017;SDS011;11173;51.050;7.108;2024-02-16T19:40:13;6.93;;;6.40;;
22017;SDS011;11173;51.050;7.108;2024-02-16T19:50:13;9.00;;;8.20;;
22017;SDS011;11173;51.050;7.108;2024-02-16T20:00:14;8.63;;;7.82;;
22017;SDS011;11173;51.050;7.108;2024-02-16T20:10:14;11.63;;;10.55;;
22017;SDS011;11173;51.050;7.108;2024-02-16T20:20:15;9.80;;;9.00;;
22017;SDS011;11173;51.050;7.108;2024-02-16T20:30:15;7.57;;;6.97;;
22017;SDS011;11173;51.050;7.108;2024-02-16T20:40:18;8.65;;;7.95;;
22017;SDS011;11173;51.050;7.108;2024-02-16T20:50:20;9.07;;;8.30;;
22017;SDS011;11173;51.050;7.108;2024-02-16T21:00:22;9.45;;;8.63;;
22017;SDS011;11173;51.050;7.108;2024-02-16T21:10:24;10.27;;;9.18;;
22017;SDS011;11173;51.050;7.108;2024-02-16T21:20:24;9.13;;;8.32;;
22017;SDS011;11173;51.050;7.108;2024-02-16T21:30:24;8.00;;;7.30;;
22017;SDS011;11173;51.050;7.108;2024-02-16T21:40:25;7.60;;;6.90;;
22017;SDS011;11173;51.050;7.108;2024-02-16T21:50:26;6.57;;;6.03;;
22017;SDS011;11173;51.050;7.108;2024-02-16T22:00:28;6.55;;;5.95;;
22017;SDS011;11173;51.050;7.108;2024-02-16T22:10:28;9.73;;;8.85;;
22017;SDS011;11173;51.050;7.108;2024-02-16T22:20:32;10.23;;;9.23;;
22017;SDS011;11173;51.050;7.108;2024-02-16T22:30:34;11.23;;;10.15;;
22017;SDS011;11173;51.050;7.108;2024-02-16T22:40:34;13.13;;;11.07;;
22017;SDS011;11173;51.050;7.108;2024-02-16T22:50:35;12.20;;;10.70;;
22017;SDS011;11173;51.050;7.108;2024-02-16T23:00:35;11.07;;;9.98;;
22017;SDS011;11173;51.050;7.108;2024-02-16T23:10:40;11.82;;;10.63;;
22017;SDS011;11173;51.050;7.108;2024-02-16T23:20:41;10.13;;;9.13;;
22017;SDS011;11173;51.050;7.108;2024-02-16T23:30:42;12.23;;;9.55;;
22017;SDS011;11173;51.050;7.108;2024-02-16T23:40:42;10.73;;;9.63;;
22017;SDS011;11173;51.050;7.108;2024-02-16T23:50:43;12.55;;;9.20;;
